sensor_id;sensor_type;location;lat;lon;timestamp;P1;P4;P2;P0;N10;N4;N25;N1;N05;TS
65988;SPS30;53592;51.402;6.054;2022-11-24T00:01:10;6.22;5.95;4.62;2.80;22.66;22.60;22.25;20.54;15.92;0.82
65988;SPS30;53592;51.402;6.054;2022-11-24T00:03:42;6.49;6.21;4.81;2.92;23.62;23.56;23.20;21.41;16.59;0.82
65988;SPS30;53592;51.402;6.054;2022-11-24T00:06:10;6.66;6.38;4.97;3.05;24.67;24.61;24.25;22.44;17.48;0.81
65988;SPS30;53592;51.402;6.054;2022-11-24T00:08:38;6.50;6.21;4.77;2.82;22.84;22.78;22.41;20.56;15.78;0.83
65988;SPS30;53592;51.402;6.054;2022-11-24T00:11:09;6.94;6.63;5.05;2.92;23.69;23.62;23.21;21.19;16.11;0.84
65988;SPS30;53592;51.402;6.054;2022-11-24T00:13:43;6.99;6.68;5.12;3.02;24.43;24.36;23.96;21.96;16.82;0.83
65988;SPS30;53592;51.402;6.054;2022-11-24T00:16:11;6.47;6.19;4.81;2.94;23.73;23.67;23.31;21.54;16.73;0.81
65988;SPS30;53592;51.402;6.054;2022-11-24T00:18:37;6.83;6.53;5.05;3.04;24.58;24.51;24.13;22.23;17.17;0.84
65988;SPS30;53592;51.402;6.054;2022-11-24T00:21:04;7.28;6.95;5.28;3.04;24.61;24.53;24.10;21.97;16.65;0.87
65988;SPS30;53592;51.402;6.054;2022-11-24T00:23:30;6.77;6.45;4.87;2.75;22.28;22.21;21.81;19.78;14.86;0.88
65988;SPS30;53592;51.402;6.054;2022-11-24T00:26:07;6.89;6.57;5.00;2.88;23.34;23.27;22.87;20.85;15.82;0.87
65988;SPS30;53592;51.402;6.054;2022-11-24T00:28:36;6.79;6.48;4.93;2.85;23.09;23.02;22.63;20.65;15.68;0.86
65988;SPS30;53592;51.402;6.054;2022-11-24T00:31:04;7.03;6.70;5.05;2.86;23.16;23.09;22.67;20.57;15.46;0.87
65988;SPS30;53592;51.402;6.054;2022-11-24T00:33:38;7.57;7.21;5.45;3.09;25.02;24.94;24.49;22.24;16.73;0.84
65988;SPS30;53592;51.402;6.054;2022-11-24T00:36:03;6.27;5.99;4.55;2.62;21.19;21.13;20.76;18.92;14.34;0.83
65988;SPS30;53592;51.402;6.054;2022-11-24T00:38:29;6.27;5.99;4.63;2.79;22.53;22.47;22.12;20.37;15.73;0.82
65988;SPS30;53592;51.402;6.054;2022-11-24T00:40:54;6.26;5.98;4.55;2.64;21.35;21.29;20.92;19.10;14.51;0.85
65988;SPS30;53592;51.402;6.054;2022-11-24T00:43:20;6.16;5.89;4.54;2.71;21.95;21.88;21.54;19.81;15.26;0.83
65988;SPS30;53592;51.402;6.054;2022-11-24T00:45:46;6.51;6.23;4.82;2.92;23.63;23.56;23.20;21.40;16.57;0.83
65988;SPS30;53592;51.402;6.054;2022-11-24T00:48:12;6.02;5.75;4.44;2.67;21.58;21.52;21.18;19.50;15.05;0.82
65988;SPS30;53592;51.402;6.054;2022-11-24T00:50:37;5.41;5.19;4.06;2.52;20.34;20.28;19.99;18.54;14.50;0.80
65988;SPS30;53592;51.402;6.054;2022-11-24T00:53:03;5.78;5.54;4.36;2.74;22.16;22.11;21.81;20.28;15.94;0.79
65988;SPS30;53592;51.402;6.054;2022-11-24T00:55:28;5.70;5.45;4.23;2.57;20.80;20.74;20.43;18.86;14.63;0.81
65988;SPS30;53592;51.402;6.054;2022-11-24T00:57:54;5.88;5.61;4.26;2.46;19.93;19.87;19.53;17.81;13.51;0.84
65988;SPS30;53592;51.402;6.054;2022-11-24T01:00:19;6.01;5.73;4.32;2.44;19.76;19.70;19.34;17.54;13.17;0.87
65988;SPS30;53592;51.402;6.054;2022-11-24T01:02:45;6.29;5.99;4.50;2.51;20.38;20.31;19.94;18.04;13.48;0.88
65988;SPS30;53592;51.402;6.054;2022-11-24T01:05:11;6.32;6.03;4.60;2.68;21.68;21.62;21.25;19.42;14.79;0.84
65988;SPS30;53592;51.402;6.054;2022-11-24T01:07:37;6.50;6.19;4.65;2.60;21.08;21.01;20.62;18.66;13.94;0.86
65988;SPS30;53592;51.402;6.054;2022-11-24T01:10:02;6.35;6.05;4.53;2.52;20.42;20.35;19.96;18.03;13.44;0.86
65988;SPS30;53592;51.402;6.054;2022-11-24T01:12:29;5.98;5.71;4.32;2.46;19.94;19.87;19.52;17.75;13.39;0.84
65988;SPS30;53592;51.402;6.054;2022-11-24T01:14:54;6.41;6.11;4.59;2.58;20.88;20.81;20.43;18.50;13.85;0.87
65988;SPS30;53592;51.402;6.054;2022-11-24T01:17:20;6.27;5.97;4.49;2.52;20.42;20.35;19.98;18.09;13.54;0.86
65988;SPS30;53592;51.402;6.054;2022-11-24T01:19:45;5.85;5.58;4.23;2.42;19.62;19.56;19.21;17.49;13.22;0.84
65988;SPS30;53592;51.402;6.054;2022-11-24T01:22:13;6.75;6.43;4.82;2.68;21.71;21.64;21.23;19.18;14.30;0.88
65988;SPS30;53592;51.402;6.054;2022-11-24T01:24:39;6.75;6.43;4.80;2.63;21.37;21.30;20.88;18.81;13.94;0.90
65988;SPS30;53592;51.402;6.054;2022-11-24T01:27:05;6.03;5.75;4.36;2.49;20.17;20.10;19.75;17.97;13.57;0.87
65988;SPS30;53592;51.402;6.054;2022-11-24T01:29:30;5.95;5.68;4.33;2.51;20.36;20.30;19.95;18.23;13.87;0.86
65988;SPS30;53592;51.402;6.054;2022-11-24T01:31:56;6.16;5.88;4.49;2.61;21.14;21.08;20.73;18.94;14.42;0.86
65988;SPS30;53592;51.402;6.054;2022-11-24T01:34:21;5.94;5.66;4.30;2.48;20.10;20.04;19.69;17.95;13.61;0.86
65988;SPS30;53592;51.402;6.054;2022-11-24T01:36:47;5.66;5.40;4.09;2.34;18.95;18.89;18.55;16.88;12.75;0.85
65988;SPS30;53592;51.402;6.054;2022-11-24T01:39:13;6.09;5.80;4.36;2.44;19.80;19.73;19.36;17.53;13.11;0.85
65988;SPS30;53592;51.402;6.054;2022-11-24T01:41:38;6.51;6.21;4.73;2.75;22.29;22.23;21.85;19.96;15.19;0.82
65988;SPS30;53592;51.402;6.054;2022-11-24T01:44:26;6.04;5.77;4.40;2.57;20.80;20.74;20.40;18.65;14.22;0.81
65988;SPS30;53592;51.402;6.054;2022-11-24T01:47:21;5.19;4.97;3.86;2.36;19.11;19.06;18.77;17.36;13.50;0.79
65988;SPS30;53592;51.402;6.054;2022-11-24T01:49:53;5.99;5.73;4.44;2.70;21.81;21.76;21.43;19.77;15.33;0.79
65988;SPS30;53592;51.402;6.054;2022-11-24T01:52:26;5.62;5.37;4.15;2.49;20.15;20.10;19.78;18.21;14.06;0.80
65988;SPS30;53592;51.402;6.054;2022-11-24T01:55:02;6.31;6.02;4.62;2.73;22.10;22.03;21.67;19.88;15.24;0.83
65988;SPS30;53592;51.402;6.054;2022-11-24T01:57:35;6.05;5.78;4.43;2.61;21.12;21.06;20.71;18.98;14.53;0.83
65988;SPS30;53592;51.402;6.054;2022-11-24T02:00:09;5.89;5.63;4.32;2.55;20.62;20.57;20.23;18.55;14.21;0.83
65988;SPS30;53592;51.402;6.054;2022-11-24T02:02:37;5.15;4.94;3.86;2.39;19.30;19.25;18.97;17.59;13.74;0.81
65988;SPS30;53592;51.402;6.054;2022-11-24T02:05:09;5.78;5.54;4.31;2.65;21.39;21.33;21.02;19.44;15.13;0.83
65988;SPS30;53592;51.402;6.054;2022-11-24T02:07:44;5.16;4.95;3.87;2.40;19.38;19.33;19.05;17.67;13.81;0.82
65988;SPS30;53592;51.402;6.054;2022-11-24T02:10:12;5.68;5.44;4.24;2.61;21.13;21.07;20.77;19.23;15.00;0.82
65988;SPS30;53592;51.402;6.054;2022-11-24T02:12:40;6.64;6.34;4.85;2.84;22.98;22.92;22.53;20.62;15.75;0.85
65988;SPS30;53592;51.402;6.054;2022-11-24T02:15:10;6.60;6.29;4.77;2.74;22.19;22.12;21.74;19.79;14.98;0.87
65988;SPS30;53592;51.402;6.054;2022-11-24T02:17:37;6.90;6.58;4.96;2.81;22.78;22.71;22.29;20.24;15.22;0.87
65988;SPS30;53592;51.402;6.054;2022-11-24T02:20:04;6.31;6.02;4.56;2.61;21.19;21.12;20.75;18.90;14.29;0.86
65988;SPS30;53592;51.402;6.054;2022-11-24T02:22:34;6.48;6.18;4.67;2.66;21.60;21.53;21.15;19.23;14.51;0.86
65988;SPS30;53592;51.402;6.054;2022-11-24T02:28:01;6.74;6.43;4.86;2.76;22.37;22.30;21.90;19.89;14.98;0.84
65988;SPS30;53592;51.402;6.054;2022-11-24T02:30:32;6.22;5.94;4.53;2.63;21.33;21.27;20.91;19.11;14.54;0.83
65988;SPS30;53592;51.402;6.054;2022-11-24T02:32:59;6.52;6.23;4.76;2.78;22.54;22.48;22.10;20.23;15.44;0.85
65988;SPS30;53592;51.402;6.054;2022-11-24T02:35:26;6.98;6.66;5.08;2.96;23.97;23.90;23.49;21.47;16.35;0.86
65988;SPS30;53592;51.402;6.054;2022-11-24T02:37:52;6.56;6.26;4.79;2.80;22.65;22.59;22.21;20.32;15.50;0.85
65988;SPS30;53592;51.402;6.054;2022-11-24T02:40:22;6.98;6.66;5.08;2.94;23.84;23.77;23.37;21.34;16.22;0.86
65988;SPS30;53592;51.402;6.054;2022-11-24T02:43:06;6.50;6.21;4.76;2.81;22.72;22.66;22.29;20.43;15.64;0.85
65988;SPS30;53592;51.402;6.054;2022-11-24T02:45:39;6.47;6.19;4.82;2.95;23.87;23.81;23.46;21.69;16.88;0.82
65988;SPS30;53592;51.402;6.054;2022-11-24T02:48:05;5.82;5.58;4.36;2.69;21.78;21.72;21.41;19.84;15.49;0.81
65988;SPS30;53592;51.402;6.054;2022-11-24T02:50:31;6.73;6.44;4.97;2.99;24.16;24.09;23.72;21.84;16.86;0.83
65988;SPS30;53592;51.402;6.054;2022-11-24T02:52:56;6.71;6.41;4.90;2.86;23.20;23.13;22.74;20.81;15.88;0.84
65988;SPS30;53592;51.402;6.054;2022-11-24T02:55:22;7.46;7.11;5.36;3.02;24.49;24.41;23.96;21.73;16.31;0.86
65988;SPS30;53592;51.402;6.054;2022-11-24T02:57:47;6.58;6.28;4.75;2.71;22.00;21.93;21.54;19.59;14.79;0.83
65988;SPS30;53592;51.402;6.054;2022-11-24T03:00:14;6.95;6.63;5.02;2.87;23.27;23.20;22.79;20.74;15.67;0.85
65988;SPS30;53592;51.402;6.054;2022-11-24T03:02:40;7.05;6.73;5.13;2.99;24.22;24.15;23.75;21.71;16.54;0.85
65988;SPS30;53592;51.402;6.054;2022-11-24T03:05:06;7.07;6.74;5.08;2.86;23.17;23.10;22.67;20.55;15.42;0.88
65988;SPS30;53592;51.402;6.054;2022-11-24T03:07:32;7.92;7.53;5.57;2.98;24.23;24.14;23.65;21.16;15.49;0.92
65988;SPS30;53592;51.402;6.054;2022-11-24T03:09:58;7.50;7.14;5.33;2.92;23.69;23.61;23.15;20.84;15.43;0.89
65988;SPS30;53592;51.402;6.054;2022-11-24T03:12:23;7.42;7.07;5.31;2.96;24.01;23.93;23.48;21.24;15.86;0.87
65988;SPS30;53592;51.402;6.054;2022-11-24T03:14:49;7.61;7.25;5.41;2.97;24.13;24.05;23.59;21.25;15.76;0.88
65988;SPS30;53592;51.402;6.054;2022-11-24T03:17:15;7.40;7.05;5.31;2.98;24.15;24.07;23.63;21.40;16.03;0.85
65988;SPS30;53592;51.402;6.054;2022-11-24T03:19:40;7.45;7.11;5.37;3.05;24.71;24.63;24.19;21.98;16.55;0.84
65988;SPS30;53592;51.402;6.054;2022-11-24T03:22:06;7.87;7.49;5.57;3.02;24.51;24.43;23.94;21.50;15.83;0.89
65988;SPS30;53592;51.402;6.054;2022-11-24T03:24:31;8.83;8.40;6.24;3.38;27.45;27.35;26.80;24.06;17.71;0.89
65988;SPS30;53592;51.402;6.054;2022-11-24T03:26:57;9.10;8.64;6.35;3.33;27.10;27.00;26.42;23.52;17.03;0.90
65988;SPS30;53592;51.402;6.054;2022-11-24T03:29:22;8.47;8.06;5.96;3.19;25.89;25.80;25.27;22.61;16.53;0.88
65988;SPS30;53592;51.402;6.054;2022-11-24T03:31:48;8.28;7.88;5.86;3.19;25.90;25.81;25.30;22.74;16.78;0.86
65988;SPS30;53592;51.402;6.054;2022-11-24T03:34:13;7.97;7.59;5.70;3.19;25.87;25.79;25.31;22.90;17.13;0.86
65988;SPS30;53592;51.402;6.054;2022-11-24T03:36:39;8.63;8.21;6.10;3.32;26.92;26.83;26.29;23.62;17.41;0.88
65988;SPS30;53592;51.402;6.054;2022-11-24T03:39:04;8.09;7.70;5.74;3.13;25.42;25.33;24.83;22.34;16.51;0.88
65988;SPS30;53592;51.402;6.054;2022-11-24T03:41:31;7.98;7.60;5.70;3.17;25.74;25.65;25.17;22.75;16.97;0.87
65988;SPS30;53592;51.402;6.054;2022-11-24T03:43:56;8.19;7.81;5.86;3.28;26.57;26.48;25.99;23.52;17.57;0.88
65988;SPS30;53592;51.402;6.054;2022-11-24T03:46:22;8.52;8.11;6.06;3.33;27.03;26.93;26.41;23.80;17.65;0.89
65988;SPS30;53592;51.402;6.054;2022-11-24T03:48:47;9.00;8.55;6.33;3.40;27.61;27.52;26.95;24.14;17.68;0.91
65988;SPS30;53592;51.402;6.054;2022-11-24T03:51:13;8.63;8.20;6.03;3.17;25.77;25.67;25.12;22.37;16.21;0.93
65988;SPS30;53592;51.402;6.054;2022-11-24T03:53:38;7.82;7.45;5.58;3.08;25.03;24.94;24.47;22.08;16.43;0.90
65988;SPS30;53592;51.402;6.054;2022-11-24T03:56:04;7.55;7.21;5.51;3.22;26.09;26.02;25.58;23.41;17.87;0.86
65988;SPS30;53592;51.402;6.054;2022-11-24T03:58:30;7.00;6.69;5.15;3.06;24.74;24.67;24.27;22.29;17.12;0.85
65988;SPS30;53592;51.402;6.054;2022-11-24T04:00:55;7.68;7.33;5.58;3.24;26.23;26.15;25.71;23.48;17.85;0.85
65988;SPS30;53592;51.402;6.054;2022-11-24T04:03:21;8.30;7.91;5.98;3.40;27.57;27.48;26.99;24.53;18.48;0.86
65988;SPS30;53592;51.402;6.054;2022-11-24T04:05:47;8.74;8.31;6.18;3.34;27.15;27.06;26.52;23.80;17.51;0.89
65988;SPS30;53592;51.402;6.054;2022-11-24T04:08:13;7.79;7.42;5.58;3.13;25.40;25.32;24.85;22.51;16.86;0.86
65988;SPS30;53592;51.402;6.054;2022-11-24T04:10:39;9.05;8.60;6.40;3.48;28.24;28.14;27.58;24.78;18.27;0.89
65988;SPS30;53592;51.402;6.054;2022-11-24T04:13:10;8.45;8.04;5.98;3.24;26.33;26.24;25.72;23.09;17.02;0.90
65988;SPS30;53592;51.402;6.054;2022-11-24T04:15:40;8.08;7.70;5.76;3.19;25.90;25.82;25.32;22.86;17.02;0.89
65988;SPS30;53592;51.402;6.054;2022-11-24T04:18:07;8.77;8.34;6.21;3.37;27.39;27.30;26.76;24.04;17.73;0.89
65988;SPS30;53592;51.402;6.054;2022-11-24T04:20:34;7.67;7.31;5.51;3.11;25.20;25.12;24.67;22.37;16.80;0.86
65988;SPS30;53592;51.402;6.054;2022-11-24T04:23:00;8.64;8.21;6.07;3.24;26.34;26.25;25.71;22.99;16.80;0.89
65988;SPS30;53592;51.402;6.054;2022-11-24T04:25:26;9.28;8.81;6.50;3.44;27.97;27.87;27.28;24.34;17.71;0.89
65988;SPS30;53592;51.402;6.054;2022-11-24T04:27:52;8.50;8.10;6.11;3.46;28.01;27.92;27.41;24.88;18.69;0.85
65988;SPS30;53592;51.402;6.054;2022-11-24T04:30:20;8.51;8.10;6.06;3.34;27.09;27.00;26.48;23.88;17.73;0.85
65988;SPS30;53592;51.402;6.054;2022-11-24T04:32:47;8.58;8.16;6.02;3.19;25.92;25.83;25.28;22.57;16.43;0.87
65988;SPS30;53592;51.402;6.054;2022-11-24T04:35:13;8.50;8.07;5.94;3.12;25.33;25.24;24.70;21.99;15.92;0.89
65988;SPS30;53592;51.402;6.054;2022-11-24T04:37:39;7.90;7.52;5.62;3.09;25.06;24.97;24.49;22.06;16.36;0.87
65988;SPS30;53592;51.402;6.054;2022-11-24T04:40:05;7.53;7.18;5.42;3.08;24.94;24.86;24.41;22.17;16.69;0.85
65988;SPS30;53592;51.402;6.054;2022-11-24T04:42:33;8.00;7.63;5.78;3.30;26.77;26.68;26.21;23.85;18.02;0.86
65988;SPS30;53592;51.402;6.054;2022-11-24T04:44:59;7.63;7.28;5.51;3.14;25.47;25.39;24.94;22.69;17.13;0.86
65988;SPS30;53592;51.402;6.054;2022-11-24T04:47:25;8.31;7.91;5.93;3.30;26.76;26.67;26.17;23.65;17.64;0.87
65988;SPS30;53592;51.402;6.054;2022-11-24T04:49:51;7.95;7.57;5.68;3.16;25.65;25.57;25.09;22.68;16.92;0.86
65988;SPS30;53592;51.402;6.054;2022-11-24T04:52:17;8.02;7.63;5.69;3.10;25.20;25.11;24.62;22.14;16.36;0.89
65988;SPS30;53592;51.402;6.054;2022-11-24T04:54:45;8.32;7.90;5.82;3.08;25.02;24.93;24.40;21.76;15.81;0.91
65988;SPS30;53592;51.402;6.054;2022-11-24T04:57:15;7.82;7.44;5.56;3.05;24.79;24.71;24.23;21.83;16.19;0.88
65988;SPS30;53592;51.402;6.054;2022-11-24T04:59:41;8.39;8.00;6.06;3.46;28.06;27.98;27.48;25.00;18.88;0.86
65988;SPS30;53592;51.402;6.054;2022-11-24T05:02:07;8.29;7.90;5.92;3.29;26.68;26.59;26.09;23.57;17.57;0.89
65988;SPS30;53592;51.402;6.054;2022-11-24T05:04:33;8.68;8.27;6.19;3.42;27.73;27.64;27.11;24.46;18.18;0.89
65988;SPS30;53592;51.402;6.054;2022-11-24T05:06:58;8.47;8.06;5.99;3.25;26.43;26.34;25.81;23.19;17.09;0.89
65988;SPS30;53592;51.402;6.054;2022-11-24T05:09:24;8.19;7.79;5.80;3.16;25.67;25.58;25.08;22.55;16.65;0.90
65988;SPS30;53592;51.402;6.054;2022-11-24T05:11:49;8.32;7.94;6.03;3.47;28.15;28.06;27.58;25.14;19.06;0.86
65988;SPS30;53592;51.402;6.054;2022-11-24T05:14:15;7.75;7.38;5.57;3.15;25.52;25.44;24.97;22.66;17.03;0.86
65988;SPS30;53592;51.402;6.054;2022-11-24T05:16:40;7.90;7.53;5.69;3.24;26.23;26.15;25.68;23.34;17.59;0.86
65988;SPS30;53592;51.402;6.054;2022-11-24T05:19:06;8.61;8.22;6.23;3.57;28.93;28.84;28.33;25.79;19.51;0.86
65988;SPS30;53592;51.402;6.054;2022-11-24T05:21:31;8.39;8.00;6.00;3.34;27.11;27.02;26.51;23.97;17.89;0.88
65988;SPS30;53592;51.402;6.054;2022-11-24T05:23:56;8.32;7.92;5.93;3.28;26.64;26.56;26.05;23.52;17.50;0.89
65988;SPS30;53592;51.402;6.054;2022-11-24T05:26:22;8.58;8.17;6.15;3.45;28.00;27.91;27.39;24.81;18.59;0.88
65988;SPS30;53592;51.402;6.054;2022-11-24T05:28:47;8.96;8.53;6.42;3.60;29.20;29.10;28.56;25.87;19.37;0.88
65988;SPS30;53592;51.402;6.054;2022-11-24T05:31:13;7.86;7.50;5.69;3.26;26.40;26.32;25.86;23.54;17.80;0.86
65988;SPS30;53592;51.402;6.054;2022-11-24T05:33:38;8.37;7.99;6.09;3.54;28.65;28.56;28.08;25.65;19.52;0.86
65988;SPS30;53592;51.402;6.054;2022-11-24T05:36:05;8.34;7.95;6.00;3.40;27.56;27.47;26.97;24.49;18.43;0.88
65988;SPS30;53592;51.402;6.054;2022-11-24T05:38:31;8.84;8.42;6.30;3.48;28.21;28.11;27.57;24.87;18.49;0.89
65988;SPS30;53592;51.402;6.054;2022-11-24T05:41:04;8.85;8.43;6.34;3.56;28.86;28.76;28.23;25.57;19.15;0.88
65988;SPS30;53592;51.402;6.054;2022-11-24T05:43:29;9.08;8.64;6.44;3.53;28.62;28.52;27.96;25.17;18.62;0.88
65988;SPS30;53592;51.402;6.054;2022-11-24T05:45:59;8.46;8.05;5.98;3.25;26.37;26.28;25.76;23.13;17.05;0.89
65988;SPS30;53592;51.402;6.054;2022-11-24T05:48:25;8.98;8.56;6.41;3.55;28.82;28.72;28.18;25.44;18.94;0.88
65988;SPS30;53592;51.402;6.054;2022-11-24T05:50:52;8.84;8.40;6.21;3.31;26.87;26.78;26.22;23.43;17.11;0.92
65988;SPS30;53592;51.402;6.054;2022-11-24T05:53:21;9.21;8.75;6.45;3.40;27.65;27.54;26.96;24.03;17.45;0.91
65988;SPS30;53592;51.402;6.054;2022-11-24T05:55:48;8.27;7.86;5.81;3.10;25.20;25.11;24.59;21.99;16.07;0.91
65988;SPS30;53592;51.402;6.054;2022-11-24T05:58:13;8.54;8.10;5.91;3.02;24.57;24.47;23.91;21.13;15.07;0.93
65988;SPS30;53592;51.402;6.054;2022-11-24T06:00:39;7.84;7.43;5.40;2.73;22.23;22.14;21.63;19.05;13.51;0.94
65988;SPS30;53592;51.402;6.054;2022-11-24T06:03:06;8.01;7.60;5.58;2.92;23.77;23.68;23.17;20.60;14.90;0.91
65988;SPS30;53592;51.402;6.054;2022-11-24T06:05:32;7.65;7.27;5.40;2.92;23.70;23.62;23.14;20.76;15.27;0.89
65988;SPS30;53592;51.402;6.054;2022-11-24T06:07:58;7.75;7.36;5.45;2.91;23.64;23.55;23.07;20.63;15.08;0.90
65988;SPS30;53592;51.402;6.054;2022-11-24T06:10:24;8.07;7.68;5.71;3.10;25.18;25.09;24.59;22.09;16.28;0.88
65988;SPS30;53592;51.402;6.054;2022-11-24T06:12:50;6.95;6.63;5.01;2.84;23.00;22.93;22.51;20.44;15.38;0.86
65988;SPS30;53592;51.402;6.054;2022-11-24T06:15:16;6.86;6.54;4.97;2.86;23.15;23.08;22.68;20.67;15.66;0.86
65988;SPS30;53592;51.402;6.054;2022-11-24T06:17:41;6.19;5.91;4.51;2.63;21.32;21.26;20.91;19.12;14.58;0.84
65988;SPS30;53592;51.402;6.054;2022-11-24T06:20:08;7.38;7.03;5.27;2.92;23.68;23.60;23.15;20.91;15.57;0.88
65988;SPS30;53592;51.402;6.054;2022-11-24T06:22:35;6.36;6.07;4.64;2.71;21.95;21.89;21.52;19.69;15.02;0.85
65988;SPS30;53592;51.402;6.054;2022-11-24T06:25:02;5.92;5.65;4.34;2.57;20.80;20.74;20.40;18.72;14.36;0.83
65988;SPS30;53592;51.402;6.054;2022-11-24T06:27:28;4.80;4.59;3.56;2.16;17.47;17.43;17.16;15.84;12.27;0.82
65988;SPS30;53592;51.402;6.054;2022-11-24T06:29:54;5.38;5.14;3.93;2.29;18.57;18.52;18.21;16.66;12.70;0.84
65988;SPS30;53592;51.402;6.054;2022-11-24T06:32:19;5.78;5.51;4.20;2.43;19.69;19.63;19.30;17.61;13.39;0.85
65988;SPS30;53592;51.402;6.054;2022-11-24T06:34:45;5.71;5.45;4.13;2.37;19.17;19.11;18.77;17.09;12.92;0.86
65988;SPS30;53592;51.402;6.054;2022-11-24T06:37:10;5.48;5.23;3.98;2.29;18.57;18.52;18.20;16.59;12.58;0.86
65988;SPS30;53592;51.402;6.054;2022-11-24T06:39:36;4.81;4.59;3.51;2.06;16.68;16.63;16.36;14.98;11.44;0.85
65988;SPS30;53592;51.402;6.054;2022-11-24T06:42:01;5.30;5.06;3.85;2.22;17.97;17.91;17.61;16.05;12.18;0.85
65988;SPS30;53592;51.402;6.054;2022-11-24T06:44:27;4.71;4.51;3.48;2.10;16.97;16.93;16.66;15.35;11.86;0.82
65988;SPS30;53592;51.402;6.054;2022-11-24T06:46:53;3.90;3.72;2.86;1.70;13.74;13.71;13.49;12.38;9.51;0.82
65988;SPS30;53592;51.402;6.054;2022-11-24T06:49:18;3.87;3.70;2.81;1.63;13.17;13.13;12.91;11.78;8.94;0.84
65988;SPS30;53592;51.402;6.054;2022-11-24T06:51:43;3.92;3.74;2.85;1.65;13.33;13.29;13.06;11.92;9.05;0.84
65988;SPS30;53592;51.402;6.054;2022-11-24T06:54:11;3.97;3.79;2.86;1.62;13.14;13.09;12.86;11.67;8.78;0.86
65988;SPS30;53592;51.402;6.054;2022-11-24T06:56:39;4.15;3.95;2.96;1.64;13.30;13.26;13.00;11.74;8.74;0.89
65988;SPS30;53592;51.402;6.054;2022-11-24T06:59:04;3.53;3.37;2.53;1.42;11.54;11.50;11.29;10.23;7.66;0.87
65988;SPS30;53592;51.402;6.054;2022-11-24T07:01:30;3.61;3.44;2.61;1.50;12.14;12.11;11.90;10.84;8.20;0.85
65988;SPS30;53592;51.402;6.054;2022-11-24T07:03:56;3.28;3.14;2.42;1.46;11.81;11.77;11.59;10.68;8.25;0.83
65988;SPS30;53592;51.402;6.054;2022-11-24T07:06:22;2.96;2.83;2.19;1.32;10.71;10.68;10.52;9.70;7.50;0.83
65988;SPS30;53592;51.402;6.054;2022-11-24T07:08:50;3.00;2.87;2.22;1.33;10.73;10.70;10.54;9.69;7.47;0.84
65988;SPS30;53592;51.402;6.054;2022-11-24T07:11:18;3.25;3.11;2.41;1.45;11.76;11.72;11.54;10.64;8.23;0.84
65988;SPS30;53592;51.402;6.054;2022-11-24T07:13:46;3.46;3.31;2.56;1.53;12.41;12.37;12.18;11.21;8.65;0.84
65988;SPS30;53592;51.402;6.054;2022-11-24T07:16:16;2.97;2.84;2.21;1.36;10.96;10.93;10.77;9.96;7.75;0.82
65988;SPS30;53592;51.402;6.054;2022-11-24T07:18:43;2.80;2.69;2.14;1.38;11.12;11.10;10.95;10.24;8.13;0.78
65988;SPS30;53592;51.402;6.054;2022-11-24T07:21:09;2.85;2.74;2.19;1.43;11.53;11.51;11.37;10.66;8.49;0.78
65988;SPS30;53592;51.402;6.054;2022-11-24T07:23:35;2.59;2.49;1.99;1.29;10.44;10.42;10.29;9.63;7.66;0.78
65988;SPS30;53592;51.402;6.054;2022-11-24T07:26:01;2.76;2.65;2.12;1.38;11.17;11.14;11.00;10.32;8.22;0.77
65988;SPS30;53592;51.402;6.054;2022-11-24T07:28:28;2.34;2.25;1.80;1.18;9.53;9.51;9.39;8.81;7.03;0.77
65988;SPS30;53592;51.402;6.054;2022-11-24T07:30:53;2.38;2.28;1.82;1.18;9.50;9.48;9.36;8.76;6.96;0.78
65988;SPS30;53592;51.402;6.054;2022-11-24T07:33:19;2.30;2.21;1.75;1.13;9.09;9.07;8.95;8.37;6.63;0.78
65988;SPS30;53592;51.402;6.054;2022-11-24T07:35:49;2.43;2.33;1.84;1.16;9.40;9.37;9.25;8.61;6.78;0.80
65988;SPS30;53592;51.402;6.054;2022-11-24T07:38:15;2.50;2.40;1.90;1.21;9.79;9.77;9.64;8.99;7.10;0.80
65988;SPS30;53592;51.402;6.054;2022-11-24T07:40:40;2.26;2.17;1.70;1.07;8.64;8.62;8.50;7.90;6.21;0.80
65988;SPS30;53592;51.402;6.054;2022-11-24T07:43:07;2.60;2.49;1.94;1.19;9.61;9.58;9.44;8.73;6.80;0.80
65988;SPS30;53592;51.402;6.054;2022-11-24T07:45:32;2.53;2.42;1.89;1.16;9.37;9.35;9.21;8.52;6.64;0.80
65988;SPS30;53592;51.402;6.054;2022-11-24T07:47:58;2.52;2.42;1.90;1.18;9.57;9.54;9.41;8.74;6.85;0.79
65988;SPS30;53592;51.402;6.054;2022-11-24T07:50:23;2.53;2.42;1.90;1.19;9.58;9.55;9.42;8.74;6.85;0.79
65988;SPS30;53592;51.402;6.054;2022-11-24T07:52:49;2.29;2.19;1.71;1.04;8.43;8.40;8.28;7.65;5.95;0.81
65988;SPS30;53592;51.402;6.054;2022-11-24T07:55:14;2.35;2.25;1.74;1.04;8.42;8.40;8.27;7.61;5.87;0.81
65988;SPS30;53592;51.402;6.054;2022-11-24T07:57:40;2.41;2.30;1.77;1.06;8.56;8.54;8.40;7.72;5.95;0.81
65988;SPS30;53592;51.402;6.054;2022-11-24T08:00:05;2.54;2.43;1.88;1.14;9.19;9.17;9.03;8.32;6.44;0.82
65988;SPS30;53592;51.402;6.054;2022-11-24T08:02:32;2.57;2.46;1.89;1.13;9.14;9.12;8.97;8.25;6.35;0.83
65988;SPS30;53592;51.402;6.054;2022-11-24T08:04:58;2.54;2.42;1.85;1.09;8.80;8.77;8.63;7.90;6.03;0.84
65988;SPS30;53592;51.402;6.054;2022-11-24T08:07:23;2.48;2.37;1.83;1.10;8.89;8.87;8.73;8.03;6.20;0.82
65988;SPS30;53592;51.402;6.054;2022-11-24T08:09:49;2.65;2.53;1.96;1.18;9.54;9.51;9.37;8.63;6.67;0.82
65988;SPS30;53592;51.402;6.054;2022-11-24T08:12:15;2.72;2.60;2.02;1.22;9.89;9.87;9.72;8.96;6.94;0.81
65988;SPS30;53592;51.402;6.054;2022-11-24T08:14:45;12.78;12.29;9.87;6.51;52.50;52.39;51.77;48.63;38.88;0.74
65988;SPS30;53592;51.402;6.054;2022-11-24T08:17:11;4.26;4.17;3.68;2.92;23.39;23.36;23.23;22.57;19.06;0.65
65988;SPS30;53592;51.402;6.054;2022-11-24T08:19:36;5.57;5.47;5.00;4.17;33.40;33.37;33.24;32.56;27.85;0.61
65988;SPS30;53592;51.402;6.054;2022-11-24T08:22:03;4.00;3.94;3.64;3.10;24.84;24.82;24.74;24.31;20.89;0.62
65988;SPS30;53592;51.402;6.054;2022-11-24T08:24:28;2.44;2.40;2.20;1.85;14.80;14.79;14.73;14.44;12.37;0.62
65988;SPS30;53592;51.402;6.054;2022-11-24T08:26:55;2.35;2.30;2.08;1.71;13.72;13.71;13.65;13.34;11.37;0.63
65988;SPS30;53592;51.402;6.054;2022-11-24T08:29:20;2.33;2.28;2.07;1.70;13.64;13.63;13.57;13.27;11.31;0.64
65988;SPS30;53592;51.402;6.054;2022-11-24T08:31:46;2.36;2.32;2.08;1.69;13.51;13.49;13.43;13.10;11.13;0.65
65988;SPS30;53592;51.402;6.054;2022-11-24T08:34:11;2.63;2.58;2.32;1.90;15.21;15.20;15.13;14.77;12.57;0.64
65988;SPS30;53592;51.402;6.054;2022-11-24T08:36:37;2.34;2.29;2.06;1.67;13.42;13.41;13.35;13.02;11.07;0.66
65988;SPS30;53592;51.402;6.054;2022-11-24T08:39:02;2.48;2.42;2.13;1.68;13.47;13.45;13.37;12.98;10.95;0.67
65988;SPS30;53592;51.402;6.054;2022-11-24T08:41:28;2.69;2.63;2.33;1.86;14.93;14.92;14.84;14.43;12.21;0.67
65988;SPS30;53592;51.402;6.054;2022-11-24T08:43:54;2.71;2.65;2.35;1.86;14.95;14.94;14.85;14.44;12.20;0.67
65988;SPS30;53592;51.402;6.054;2022-11-24T08:46:20;2.86;2.78;2.40;1.82;14.60;14.58;14.48;13.96;11.66;0.70
65988;SPS30;53592;51.402;6.054;2022-11-24T08:48:50;2.80;2.72;2.32;1.72;13.83;13.81;13.71;13.18;10.94;0.71
65988;SPS30;53592;51.402;6.054;2022-11-24T08:51:18;3.18;3.08;2.60;1.90;15.26;15.24;15.12;14.48;11.96;0.73
65988;SPS30;53592;51.402;6.054;2022-11-24T08:53:46;2.84;2.75;2.30;1.64;13.22;13.20;13.08;12.49;10.26;0.74
65988;SPS30;53592;51.402;6.054;2022-11-24T08:56:12;3.02;2.93;2.46;1.79;14.38;14.36;14.23;13.62;11.23;0.73
65988;SPS30;53592;51.402;6.054;2022-11-24T08:58:38;2.83;2.74;2.30;1.66;13.35;13.33;13.22;12.63;10.40;0.74
65988;SPS30;53592;51.402;6.054;2022-11-24T09:01:12;2.99;2.89;2.41;1.72;13.82;13.80;13.68;13.04;10.69;0.75
65988;SPS30;53592;51.402;6.054;2022-11-24T09:03:39;2.83;2.74;2.27;1.60;12.88;12.86;12.74;12.12;9.91;0.75
65988;SPS30;53592;51.402;6.054;2022-11-24T09:06:06;2.68;2.59;2.14;1.49;12.03;12.01;11.89;11.30;9.21;0.76
65988;SPS30;53592;51.402;6.054;2022-11-24T09:08:33;3.01;2.91;2.38;1.64;13.17;13.14;13.01;12.32;9.99;0.76
65988;SPS30;53592;51.402;6.054;2022-11-24T09:11:00;3.46;3.33;2.69;1.79;14.44;14.41;14.24;13.41;10.76;0.78
65988;SPS30;53592;51.402;6.054;2022-11-24T09:13:31;3.26;3.14;2.53;1.68;13.53;13.50;13.35;12.56;10.06;0.77
65988;SPS30;53592;51.402;6.054;2022-11-24T09:16:06;3.41;3.28;2.63;1.73;13.96;13.93;13.76;12.93;10.33;0.77